Time;durP1;ratioP1;P1;durP2;ratioP2;P2;SDS_P1;SDS_P2;PMS_P1;PMS_P2;Temp;Humidity;BMP_temperature;BMP_pressure;BME280_temperature;BME280_humidity;BME280_pressure;Samples;Min_cycle;Max_cycle;Signal;HPM_P1;HPM_P2
2022/01/30 00:00:23;;;;;;;2.33;2.13;;;;;;;;;;6105922;23;20375;-66
2022/01/30 00:02:48;;;;;;;1.67;1.55;;;;;;;;;;6156330;23;20060;-68
2022/01/30 00:05:14;;;;;;;2.20;1.67;;;;;;;;;;6156508;23;20430;-68
2022/01/30 00:07:39;;;;;;;2.70;2.10;;;;;;;;;;6156395;23;19998;-68
2022/01/30 00:10:10;;;;;;;2.97;1.73;;;;;;;;;;6130611;23;20092;-68
2022/01/30 00:12:57;;;;;;;2.88;2.17;;;;;;;;;;6156371;23;20005;-68
2022/01/30 00:15:38;;;;;;;1.83;1.70;;;;;;;;;;6156590;23;20013;-68
2022/01/30 00:18:26;;;;;;;1.20;0.90;;;;;;;;;;6156124;23;20013;-68
2022/01/30 00:21:40;;;;;;;2.63;2.25;;;;;;;;;;6156246;23;20022;-68
2022/01/30 00:23:48;;;;;;;1.88;1.42;;;;;;;;;;6144156;23;20068;-68
2022/01/30 00:26:16;;;;;;;4.60;2.20;;;;;;;;;;6130474;23;20061;-68
2022/01/30 00:28:41;;;;;;;2.50;1.02;;;;;;;;;;6156059;23;20005;-68
2022/01/30 00:31:08;;;;;;;3.15;1.90;;;;;;;;;;6129962;23;20013;-68
2022/01/30 00:33:34;;;;;;;2.97;2.33;;;;;;;;;;6130647;23;20009;-76
2022/01/30 00:36:01;;;;;;;3.42;2.58;;;;;;;;;;6130793;23;20016;-76
2022/01/30 00:38:27;;;;;;;3.95;1.92;;;;;;;;;;6130669;23;20010;-75
2022/01/30 00:40:58;;;;;;;4.15;2.47;;;;;;;;;;6156398;23;20016;-75
2022/01/30 00:43:25;;;;;;;2.78;2.42;;;;;;;;;;6131085;23;20001;-76
2022/01/30 00:45:51;;;;;;;1.83;1.73;;;;;;;;;;6156809;23;19994;-76
2022/01/30 00:48:24;;;;;;;2.33;2.10;;;;;;;;;;6157521;23;20014;-76
2022/01/30 00:50:55;;;;;;;3.70;2.45;;;;;;;;;;6130964;23;20444;-76
2022/01/30 00:53:28;;;;;;;3.58;2.20;;;;;;;;;;6130808;23;20321;-76
2022/01/30 00:56:03;;;;;;;1.02;1.00;;;;;;;;;;6131208;23;20013;-76
2022/01/30 00:58:28;;;;;;;1.25;1.15;;;;;;;;;;6130321;23;20006;-76
2022/01/30 01:00:59;;;;;;;3.88;2.53;;;;;;;;;;6156774;23;19997;-76
2022/01/30 01:03:26;;;;;;;4.05;2.47;;;;;;;;;;6130765;23;20485;-74
2022/01/30 01:05:59;;;;;;;3.75;0.73;;;;;;;;;;6156978;23;20020;-75
2022/01/30 01:08:36;;;;;;;2.45;1.55;;;;;;;;;;6156669;23;20064;-75
2022/01/30 01:24:50;;;;;;;4.00;2.50;;;;;;;;;;6130237;23;20002;-75
2022/01/30 01:27:23;;;;;;;3.92;2.47;;;;;;;;;;6130338;23;20001;-74
2022/01/30 01:29:50;;;;;;;5.90;3.22;;;;;;;;;;6129770;23;20006;-74
2022/01/30 01:32:15;;;;;;;4.45;2.97;;;;;;;;;;6156274;23;20005;-74
2022/01/30 01:34:49;;;;;;;2.90;1.67;;;;;;;;;;6156266;23;20461;-74
2022/01/30 01:37:14;;;;;;;3.45;2.53;;;;;;;;;;6129797;23;20504;-70
2022/01/30 01:39:40;;;;;;;3.83;2.45;;;;;;;;;;6154889;23;20068;-71
2022/01/30 01:42:05;;;;;;;4.45;3.20;;;;;;;;;;6129206;23;20010;-70
2022/01/30 01:44:37;;;;;;;2.88;2.20;;;;;;;;;;6155290;23;20002;-71
2022/01/30 01:47:03;;;;;;;6.10;4.22;;;;;;;;;;6155494;23;20092;-70
2022/01/30 01:49:31;;;;;;;6.10;4.30;;;;;;;;;;6104607;23;20041;-70
2022/01/30 01:52:18;;;;;;;2.35;2.15;;;;;;;;;;6129239;23;20009;-74
2022/01/30 01:54:44;;;;;;;2.55;2.35;;;;;;;;;;6130280;23;20028;-76
2022/01/30 01:57:13;;;;;;;3.05;2.72;;;;;;;;;;6130192;23;20005;-75
2022/01/30 01:59:54;;;;;;;1.98;1.88;;;;;;;;;;6130198;23;20005;-75
2022/01/30 02:02:39;;;;;;;1.95;1.70;;;;;;;;;;6156273;23;20020;-75
2022/01/30 02:05:15;;;;;;;2.10;1.60;;;;;;;;;;6130047;23;20006;-75
2022/01/30 02:13:41;;;;;;;2.08;1.20;;;;;;;;;;6139624;23;20017;-74
2022/01/30 02:25:12;;;;;;;3.20;1.25;;;;;;;;;;6065886;23;20013;-69
2022/01/30 02:27:37;;;;;;;1.42;0.98;;;;;;;;;;6123039;23;20020;-69
2022/01/30 02:30:07;;;;;;;1.30;0.65;;;;;;;;;;6128745;23;20048;-70
2022/01/30 02:32:33;;;;;;;1.92;0.90;;;;;;;;;;6128872;23;20394;-68
2022/01/30 02:34:59;;;;;;;2.15;0.90;;;;;;;;;;6128396;23;20060;-69
2022/01/30 02:37:24;;;;;;;1.83;1.02;;;;;;;;;;6128794;23;20093;-68
2022/01/30 02:39:50;;;;;;;2.08;0.70;;;;;;;;;;6128413;23;20011;-68
2022/01/30 02:42:20;;;;;;;1.80;0.85;;;;;;;;;;6128795;23;20016;-68
2022/01/30 02:44:52;;;;;;;2.10;1.05;;;;;;;;;;6128736;23;19998;-68
2022/01/30 02:48:14;;;;;;;1.20;0.90;;;;;;;;;;6128816;23;20449;-68
2022/01/30 02:50:20;;;;;;;1.75;0.85;;;;;;;;;;6138976;23;20014;-68
2022/01/30 02:52:56;;;;;;;2.58;1.10;;;;;;;;;;6128701;23;20382;-69
2022/01/30 02:55:22;;;;;;;1.85;1.05;;;;;;;;;;6154837;23;20329;-68
2022/01/30 02:57:49;;;;;;;1.42;0.93;;;;;;;;;;6129616;23;20081;-74
2022/01/30 03:00:15;;;;;;;3.17;1.10;;;;;;;;;;6129802;23;20001;-74
2022/01/30 03:02:42;;;;;;;1.60;1.02;;;;;;;;;;6129522;23;20012;-74
2022/01/30 03:05:07;;;;;;;2.17;1.25;;;;;;;;;;6155789;23;20457;-74
2022/01/30 03:07:36;;;;;;;3.22;1.20;;;;;;;;;;6155532;23;20002;-74
2022/01/30 03:10:04;;;;;;;2.08;0.90;;;;;;;;;;6129427;23;20009;-73
2022/01/30 03:12:30;;;;;;;1.00;0.85;;;;;;;;;;6155513;23;20005;-73
2022/01/30 03:14:56;;;;;;;1.70;0.80;;;;;;;;;;6105236;23;20036;-73
2022/01/30 03:17:21;;;;;;;3.40;0.73;;;;;;;;;;6105102;23;20006;-74
2022/01/30 03:19:47;;;;;;;3.05;0.85;;;;;;;;;;6154863;23;20020;-74
2022/01/30 03:22:12;;;;;;;1.20;0.70;;;;;;;;;;6128838;23;20002;-68
2022/01/30 03:24:38;;;;;;;2.67;1.00;;;;;;;;;;6154774;23;20006;-68
2022/01/30 03:27:30;;;;;;;2.95;0.98;;;;;;;;;;6121310;23;20033;-68
2022/01/30 03:30:06;;;;;;;3.67;1.30;;;;;;;;;;6128374;23;20142;-68
2022/01/30 03:33:01;;;;;;;1.42;0.73;;;;;;;;;;6129646;23;20075;-68
2022/01/30 03:35:27;;;;;;;2.53;0.90;;;;;;;;;;6129520;23;20445;-74
2022/01/30 03:37:53;;;;;;;2.70;1.00;;;;;;;;;;6129327;23;20010;-75
2022/01/30 03:40:19;;;;;;;4.75;0.93;;;;;;;;;;6129202;23;20024;-75
2022/01/30 03:42:50;;;;;;;2.28;0.88;;;;;;;;;;6105051;23;20008;-75
2022/01/30 03:45:19;;;;;;;2.08;0.68;;;;;;;;;;6129535;23;20025;-74
2022/01/30 03:47:55;;;;;;;3.45;1.00;;;;;;;;;;6129045;23;20005;-76
2022/01/30 03:50:26;;;;;;;5.25;0.93;;;;;;;;;;6106123;23;20017;-77
2022/01/30 03:52:54;;;;;;;2.50;1.25;;;;;;;;;;6130672;23;20005;-76
2022/01/30 03:55:20;;;;;;;2.65;1.00;;;;;;;;;;6130623;23;20005;-68
2022/01/30 03:57:46;;;;;;;1.23;0.98;;;;;;;;;;6156596;23;20017;-68
2022/01/30 04:00:12;;;;;;;2.20;0.93;;;;;;;;;;6130330;23;20006;-69
2022/01/30 04:02:45;;;;;;;1.65;0.77;;;;;;;;;;6156841;23;20068;-69
2022/01/30 04:05:11;;;;;;;3.65;1.10;;;;;;;;;;6130085;23;20463;-69
2022/01/30 04:07:38;;;;;;;2.72;0.65;;;;;;;;;;6130230;23;20031;-68
2022/01/30 04:10:37;;;;;;;2.30;0.82;;;;;;;;;;6156671;23;20456;-75
2022/01/30 04:13:22;;;;;;;3.00;1.30;;;;;;;;;;6131130;23;20126;-75
2022/01/30 04:15:56;;;;;;;2.88;0.85;;;;;;;;;;6108536;23;20434;-74
2022/01/30 04:18:42;;;;;;;2.47;1.35;;;;;;;;;;6124517;23;20389;-75
2022/01/30 04:21:15;;;;;;;3.40;1.17;;;;;;;;;;6131110;23;20021;-74
2022/01/30 04:24:05;;;;;;;1.65;1.00;;;;;;;;;;6130660;23;20005;-75
2022/01/30 04:26:45;;;;;;;3.40;1.10;;;;;;;;;;6130901;23;20024;-74
2022/01/30 04:29:29;;;;;;;2.40;0.85;;;;;;;;;;6156498;23;20012;-68
2022/01/30 04:32:15;;;;;;;2.50;0.70;;;;;;;;;;6155522;23;20017;-74
2022/01/30 04:35:15;;;;;;;5.25;0.82;;;;;;;;;;6110813;23;20324;-74
2022/01/30 04:38:21;;;;;;;3.13;1.00;;;;;;;;;;6092186;23;20018;-73
2022/01/30 04:41:19;;;;;;;1.52;0.82;;;;;;;;;;6131225;23;20427;-73
2022/01/30 04:59:48;;;;;;;2.63;0.90;;;;;;;;;;6130299;23;19948;-74
2022/01/30 05:08:32;;;;;;;1.55;0.65;;;;;;;;;;6141392;23;19905;-75
2022/01/30 05:11:08;;;;;;;1.13;0.70;;;;;;;;;;6130642;23;20018;-75
2022/01/30 05:13:52;;;;;;;3.15;0.95;;;;;;;;;;6131096;23;20372;-75
2022/01/30 05:16:42;;;;;;;2.10;0.85;;;;;;;;;;6131227;23;20010;-75
2022/01/30 05:19:23;;;;;;;2.45;1.30;;;;;;;;;;6129521;23;20079;-70
2022/01/30 05:22:27;;;;;;;1.00;0.90;;;;;;;;;;6066082;23;20483;-70
2022/01/30 05:25:06;;;;;;;2.33;0.77;;;;;;;;;;6065362;23;20045;-70
2022/01/30 05:27:37;;;;;;;4.40;1.02;;;;;;;;;;6117626;23;20334;-70
2022/01/30 05:30:26;;;;;;;2.17;0.80;;;;;;;;;;6140064;23;20017;-70
2022/01/30 05:32:57;;;;;;;2.53;1.42;;;;;;;;;;6130824;23;20017;-70
2022/01/30 05:35:44;;;;;;;3.17;1.30;;;;;;;;;;6156184;23;20346;-75
2022/01/30 05:38:28;;;;;;;2.22;0.80;;;;;;;;;;6130133;23;20010;-76
2022/01/30 05:41:05;;;;;;;0.77;0.65;;;;;;;;;;6156791;23;20446;-74
2022/01/30 05:44:09;;;;;;;2.72;0.70;;;;;;;;;;6025622;23;20019;-74
2022/01/30 05:47:04;;;;;;;;;;;;;;;;;;6151251;23;20029;-74
2022/01/30 05:49:48;;;;;;;1.55;0.80;;;;;;;;;;6108729;23;19936;-75
2022/01/30 05:52:24;;;;;;;1.38;0.60;;;;;;;;;;6130238;23;20014;-75
2022/01/30 05:55:13;;;;;;;1.63;1.00;;;;;;;;;;6144536;23;20098;-75
2022/01/30 05:57:41;;;;;;;2.85;0.60;;;;;;;;;;6129827;23;20027;-74
2022/01/30 06:00:09;;;;;;;4.32;0.50;;;;;;;;;;6130169;23;20329;-74
2022/01/30 06:02:56;;;;;;;2.03;0.75;;;;;;;;;;6129836;23;20009;-75
2022/01/30 06:05:25;;;;;;;2.95;1.20;;;;;;;;;;6130149;23;20044;-69
2022/01/30 06:07:55;;;;;;;2.70;1.08;;;;;;;;;;6129102;23;20032;-69
2022/01/30 06:10:22;;;;;;;2.00;1.00;;;;;;;;;;6155296;23;20015;-70
2022/01/30 06:12:48;;;;;;;3.53;1.25;;;;;;;;;;6129157;23;20481;-70
2022/01/30 06:15:14;;;;;;;1.90;0.90;;;;;;;;;;6128791;23;20010;-68
2022/01/30 06:17:41;;;;;;;1.10;0.65;;;;;;;;;;6104695;23;20085;-68
2022/01/30 06:20:25;;;;;;;2.53;0.75;;;;;;;;;;6154678;23;20083;-69
2022/01/30 06:23:09;;;;;;;4.10;1.27;;;;;;;;;;6155305;23;20020;-69
2022/01/30 06:25:53;;;;;;;2.05;1.15;;;;;;;;;;6155111;23;20052;-69
2022/01/30 06:28:45;;;;;;;2.10;0.90;;;;;;;;;;6155115;23;20077;-70
2022/01/30 06:31:10;;;;;;;2.17;0.93;;;;;;;;;;6128841;23;20021;-70
2022/01/30 06:33:42;;;;;;;1.17;0.80;;;;;;;;;;6155326;23;20430;-69
2022/01/30 06:36:26;;;;;;;1.80;0.98;;;;;;;;;;6155336;23;20465;-69
2022/01/30 06:39:01;;;;;;;4.18;1.25;;;;;;;;;;6129467;23;20013;-74
2022/01/30 06:41:54;;;;;;;1.77;1.10;;;;;;;;;;6130201;23;20477;-74
2022/01/30 06:44:38;;;;;;;3.42;1.02;;;;;;;;;;6156268;23;20157;-73
2022/01/30 06:47:24;;;;;;;1.80;0.90;;;;;;;;;;6156126;23;20461;-73
2022/01/30 06:50:32;;;;;;;2.10;0.88;;;;;;;;;;6038758;23;20047;-73
2022/01/30 06:53:16;;;;;;;1.05;0.57;;;;;;;;;;6151459;23;20536;-69
2022/01/30 06:56:00;;;;;;;3.65;1.05;;;;;;;;;;6155967;23;20056;-69
2022/01/30 06:58:44;;;;;;;1.15;0.60;;;;;;;;;;6155483;23;20346;-69
2022/01/30 07:01:42;;;;;;;3.63;1.15;;;;;;;;;;6105946;23;20093;-75
2022/01/30 07:04:42;;;;;;;;;;;;;;;;;;6038904;23;20041;-75
2022/01/30 07:07:20;;;;;;;0.95;0.60;;;;;;;;;;6113555;23;19935;-74
2022/01/30 07:09:47;;;;;;;1.42;0.60;;;;;;;;;;6155694;23;20456;-74
2022/01/30 07:12:13;;;;;;;1.35;0.57;;;;;;;;;;6155607;23;20426;-75
2022/01/30 07:14:39;;;;;;;2.33;0.60;;;;;;;;;;6155525;23;20012;-74
2022/01/30 07:17:04;;;;;;;2.65;0.98;;;;;;;;;;6155592;23;20001;-74
2022/01/30 07:19:29;;;;;;;5.05;1.05;;;;;;;;;;6155354;23;20022;-74
2022/01/30 07:21:55;;;;;;;1.65;1.00;;;;;;;;;;6156448;23;20005;-74
2022/01/30 07:24:20;;;;;;;0.50;0.40;;;;;;;;;;6155864;23;20001;-74
2022/01/30 07:26:50;;;;;;;1.70;0.95;;;;;;;;;;6130360;23;20338;-74
2022/01/30 07:29:19;;;;;;;1.75;0.85;;;;;;;;;;6158452;23;20334;-74
2022/01/30 07:31:45;;;;;;;3.65;0.98;;;;;;;;;;6157546;23;20002;-74
2022/01/30 07:34:12;;;;;;;1.77;0.80;;;;;;;;;;6157385;23;20017;-74
2022/01/30 07:36:38;;;;;;;1.92;0.70;;;;;;;;;;6157556;23;20004;-74
2022/01/30 07:39:06;;;;;;;2.42;0.60;;;;;;;;;;6156980;23;20501;-74
2022/01/30 07:41:32;;;;;;;0.45;0.40;;;;;;;;;;6158187;23;20001;-74
2022/01/30 07:43:59;;;;;;;0.77;0.55;;;;;;;;;;6157448;23;20090;-75
2022/01/30 07:46:28;;;;;;;1.70;0.88;;;;;;;;;;6131432;23;20013;-74
2022/01/30 07:48:55;;;;;;;6.55;0.90;;;;;;;;;;6158015;23;20465;-75
2022/01/30 07:51:24;;;;;;;4.07;1.40;;;;;;;;;;6158012;23;20002;-74
2022/01/30 07:53:50;;;;;;;2.20;1.00;;;;;;;;;;6158123;23;20045;-74
2022/01/30 07:56:17;;;;;;;1.55;1.10;;;;;;;;;;6157574;23;20036;-74
2022/01/30 07:58:44;;;;;;;2.28;1.25;;;;;;;;;;6157540;23;20064;-74
2022/01/30 08:01:09;;;;;;;1.70;0.98;;;;;;;;;;6157540;23;20307;-74
2022/01/30 08:03:41;;;;;;;3.58;1.35;;;;;;;;;;6157583;23;20033;-74
2022/01/30 08:06:15;;;;;;;1.42;1.05;;;;;;;;;;6157277;23;20500;-75
2022/01/30 08:08:42;;;;;;;2.40;1.00;;;;;;;;;;6156824;23;20005;-74
2022/01/30 08:11:08;;;;;;;1.02;0.88;;;;;;;;;;6157154;23;20423;-74
2022/01/30 08:13:39;;;;;;;3.17;1.10;;;;;;;;;;6157301;23;20020;-74
2022/01/30 08:16:05;;;;;;;0.50;0.50;;;;;;;;;;6157322;23;20093;-74
2022/01/30 08:18:33;;;;;;;1.77;0.80;;;;;;;;;;6157277;23;20032;-74
2022/01/30 08:20:59;;;;;;;2.38;1.10;;;;;;;;;;6157086;23;20096;-71
2022/01/30 08:23:28;;;;;;;2.60;1.05;;;;;;;;;;6131368;23;20056;-67
2022/01/30 08:25:55;;;;;;;1.38;0.82;;;;;;;;;;6157318;23;20076;-74
2022/01/30 08:28:23;;;;;;;1.65;0.65;;;;;;;;;;6130941;23;20006;-74
2022/01/30 08:30:48;;;;;;;1.20;0.60;;;;;;;;;;6157210;23;20044;-74
2022/01/30 08:33:16;;;;;;;1.85;0.57;;;;;;;;;;6157404;23;20010;-74
2022/01/30 08:35:41;;;;;;;1.25;0.80;;;;;;;;;;6156854;23;20006;-73
2022/01/30 08:41:41;;;;;;;3.50;1.30;;;;;;;;;;6157618;23;20075;-66
2022/01/30 08:47:44;;;;;;;2.85;1.20;;;;;;;;;;6157578;23;20000;-66
2022/01/30 08:53:44;;;;;;;6.70;1.45;;;;;;;;;;6157512;23;20048;-73
2022/01/30 08:59:45;;;;;;;1.02;0.55;;;;;;;;;;6157382;23;20020;-73
2022/01/30 09:05:46;;;;;;;2.28;0.82;;;;;;;;;;6157339;23;20091;-74
2022/01/30 09:11:47;;;;;;;1.88;1.25;;;;;;;;;;6157252;23;20077;-74
2022/01/30 09:17:48;;;;;;;2.33;1.20;;;;;;;;;;6157342;23;20012;-73
2022/01/30 09:27:12;;;;;;;1.15;0.80;;;;;;;;;;6157133;23;20007;-72
2022/01/30 09:33:11;;;;;;;2.50;1.20;;;;;;;;;;6156832;23;20001;-63
2022/01/30 09:35:37;;;;;;;2.13;0.93;;;;;;;;;;6156390;23;20001;-66
2022/01/30 09:38:03;;;;;;;2.95;1.40;;;;;;;;;;6156411;23;20009;-68
2022/01/30 09:40:28;;;;;;;2.13;0.98;;;;;;;;;;6155303;23;20078;-68
2022/01/30 09:42:58;;;;;;;1.45;1.25;;;;;;;;;;6155983;23;19998;-68
2022/01/30 09:45:25;;;;;;;3.05;0.95;;;;;;;;;;6155605;23;20005;-68
2022/01/30 09:47:50;;;;;;;0.80;0.65;;;;;;;;;;6156012;23;19997;-68
2022/01/30 09:50:17;;;;;;;3.10;0.95;;;;;;;;;;6129816;23;20006;-68
2022/01/30 09:52:43;;;;;;;2.95;1.52;;;;;;;;;;6156524;23;19997;-68
2022/01/30 09:55:08;;;;;;;2.47;0.95;;;;;;;;;;6156430;23;20037;-68
2022/01/30 09:57:34;;;;;;;1.58;0.80;;;;;;;;;;6156773;23;20006;-66
2022/01/30 10:00:00;;;;;;;2.45;1.08;;;;;;;;;;6156360;23;20005;-66
2022/01/30 10:02:26;;;;;;;1.40;0.60;;;;;;;;;;6155263;23;20009;-66
2022/01/30 10:04:53;;;;;;;4.32;1.63;;;;;;;;;;6154604;23;20025;-66
2022/01/30 10:07:21;;;;;;;2.83;1.25;;;;;;;;;;6129647;23;20008;-65
2022/01/30 10:09:49;;;;;;;1.80;1.05;;;;;;;;;;6156070;23;20081;-65
2022/01/30 10:12:28;;;;;;;1.25;0.93;;;;;;;;;;6155869;23;20434;-65
2022/01/30 10:14:54;;;;;;;4.07;1.85;;;;;;;;;;6154477;23;20490;-65
2022/01/30 10:17:24;;;;;;;2.17;0.70;;;;;;;;;;6154647;23;20361;-65
2022/01/30 10:20:00;;;;;;;2.55;1.20;;;;;;;;;;6154477;23;20446;-67
2022/01/30 10:22:25;;;;;;;2.28;0.98;;;;;;;;;;6154425;23;20028;-65
2022/01/30 10:24:51;;;;;;;5.80;1.35;;;;;;;;;;6154142;23;20443;-65
2022/01/30 10:27:20;;;;;;;2.58;0.90;;;;;;;;;;6129394;23;20058;-65
2022/01/30 10:29:54;;;;;;;3.45;1.65;;;;;;;;;;6155436;23;20013;-66
2022/01/30 10:32:21;;;;;;;4.68;2.03;;;;;;;;;;6154705;23;20017;-65
2022/01/30 10:34:55;;;;;;;3.65;1.55;;;;;;;;;;6155186;23;20041;-65
2022/01/30 10:37:22;;;;;;;3.65;2.05;;;;;;;;;;6154510;23;20005;-65
2022/01/30 10:40:11;;;;;;;3.47;1.70;;;;;;;;;;6154279;23;20001;-65
2022/01/30 10:42:40;;;;;;;1.67;0.98;;;;;;;;;;6154403;23;20010;-66
2022/01/30 10:45:07;;;;;;;4.28;1.70;;;;;;;;;;6155365;23;19994;-66
2022/01/30 10:47:32;;;;;;;2.83;1.90;;;;;;;;;;6130114;23;20005;-68
2022/01/30 10:49:59;;;;;;;1.98;1.20;;;;;;;;;;6156328;23;20004;-72
2022/01/30 10:52:24;;;;;;;1.60;0.88;;;;;;;;;;6155861;23;20493;-68
2022/01/30 10:54:50;;;;;;;0.70;0.70;;;;;;;;;;6155788;23;20001;-66
2022/01/30 10:57:16;;;;;;;1.95;1.20;;;;;;;;;;6152348;23;20405;-66
2022/01/30 10:59:43;;;;;;;3.50;1.30;;;;;;;;;;6128631;23;20021;-70
2022/01/30 11:02:27;;;;;;;1.60;0.90;;;;;;;;;;6154402;23;20017;-66
2022/01/30 11:05:06;;;;;;;2.13;1.48;;;;;;;;;;6154246;23;20057;-67
2022/01/30 11:07:34;;;;;;;1.30;1.10;;;;;;;;;;6154273;23;20017;-67
2022/01/30 11:10:08;;;;;;;2.63;1.50;;;;;;;;;;6155487;23;20005;-67
2022/01/30 11:12:40;;;;;;;2.03;1.25;;;;;;;;;;6155921;23;20009;-67
2022/01/30 11:15:21;;;;;;;1.05;0.75;;;;;;;;;;6155922;23;20009;-67
2022/01/30 11:17:46;;;;;;;;;;;;;;;;;;6156644;23;20013;-66
2022/01/30 11:20:13;;;;;;;2.08;1.17;;;;;;;;;;6155640;23;19905;-66
2022/01/30 11:22:39;;;;;;;3.33;1.55;;;;;;;;;;6155379;23;20385;-67
2022/01/30 11:25:06;;;;;;;2.30;1.67;;;;;;;;;;6129460;23;20346;-66
2022/01/30 11:27:33;;;;;;;2.80;1.55;;;;;;;;;;6156043;23;20009;-66
2022/01/30 11:29:59;;;;;;;2.70;1.80;;;;;;;;;;6155250;23;20084;-66
2022/01/30 11:32:27;;;;;;;2.22;1.25;;;;;;;;;;6155802;23;20005;-67
2022/01/30 11:34:53;;;;;;;2.78;1.30;;;;;;;;;;6156007;23;20063;-66
2022/01/30 11:48:11;;;;;;;1.23;0.52;;;;;;;;;;6156207;23;19996;-67
2022/01/30 12:01:25;;;;;;;2.50;1.35;;;;;;;;;;6156124;23;20020;-67
2022/01/30 12:14:44;;;;;;;1.08;0.68;;;;;;;;;;6157658;23;20121;-67
2022/01/30 12:21:00;;;;;;;3.63;1.70;;;;;;;;;;6158064;23;20114;-67
2022/01/30 12:30:56;;;;;;;3.05;1.20;;;;;;;;;;6158054;23;20036;-67
2022/01/30 12:36:57;;;;;;;3.05;1.88;;;;;;;;;;6157621;23;20005;-67
2022/01/30 12:43:02;;;;;;;1.60;0.98;;;;;;;;;;6157537;23;20001;-67
2022/01/30 12:49:03;;;;;;;4.47;2.22;;;;;;;;;;6157543;23;20502;-67
2022/01/30 12:55:12;;;;;;;3.17;1.80;;;;;;;;;;6157444;23;20001;-67
2022/01/30 13:05:42;;;;;;;2.45;1.88;;;;;;;;;;6096170;23;20026;-67
2022/01/30 13:11:42;;;;;;;3.78;1.85;;;;;;;;;;6096048;23;20012;-67
2022/01/30 13:21:32;;;;;;;3.67;1.40;;;;;;;;;;6096021;23;20053;-67
2022/01/30 13:31:21;;;;;;;3.20;1.35;;;;;;;;;;6157099;23;20085;-67
2022/01/30 13:37:22;;;;;;;2.72;1.52;;;;;;;;;;6157065;23;20016;-67
2022/01/30 13:43:27;;;;;;;5.72;2.47;;;;;;;;;;6157004;23;20052;-66
2022/01/30 13:49:28;;;;;;;3.60;2.40;;;;;;;;;;6156931;23;20128;-66
2022/01/30 13:55:29;;;;;;;5.90;3.35;;;;;;;;;;6156865;23;20046;-66
2022/01/30 14:01:30;;;;;;;5.60;2.40;;;;;;;;;;6156827;23;20074;-66
2022/01/30 14:07:31;;;;;;;4.95;2.30;;;;;;;;;;6156772;23;20048;-66
2022/01/30 14:13:36;;;;;;;6.78;2.88;;;;;;;;;;6156727;23;20117;-66
2022/01/30 14:23:13;;;;;;;5.43;2.40;;;;;;;;;;6156639;23;20004;-66
2022/01/30 14:32:39;;;;;;;4.85;2.42;;;;;;;;;;6156564;23;20615;-66
2022/01/30 14:38:44;;;;;;;8.00;2.47;;;;;;;;;;6156436;23;20093;-66
2022/01/30 14:44:45;;;;;;;8.65;3.33;;;;;;;;;;6156509;23;20481;-67
2022/01/30 14:50:45;;;;;;;6.00;2.38;;;;;;;;;;6156467;23;20044;-67
2022/01/30 14:56:46;;;;;;;8.18;2.67;;;;;;;;;;6156429;23;20474;-67
2022/01/30 15:02:47;;;;;;;7.03;3.10;;;;;;;;;;6156376;23;20005;-66
2022/01/30 15:08:48;;;;;;;7.13;2.67;;;;;;;;;;6156371;23;20117;-67
2022/01/30 15:14:52;;;;;;;7.68;3.15;;;;;;;;;;6156614;23;19996;-67
2022/01/30 15:17:21;;;;;;;2.78;1.77;;;;;;;;;;6155970;23;20010;-67
2022/01/30 15:19:47;;;;;;;4.38;2.15;;;;;;;;;;6129523;23;20089;-67
2022/01/30 15:22:13;;;;;;;5.13;2.17;;;;;;;;;;6155573;23;20012;-67
2022/01/30 15:24:41;;;;;;;5.88;2.30;;;;;;;;;;6117480;23;19998;-66
2022/01/30 15:27:06;;;;;;;4.60;1.80;;;;;;;;;;6149474;23;20013;-66
2022/01/30 15:29:32;;;;;;;9.98;2.88;;;;;;;;;;6148205;23;20080;-66
2022/01/30 15:39:08;;;;;;;6.70;2.50;;;;;;;;;;6156126;23;20449;-66
2022/01/30 15:51:08;;;;;;;6.97;2.67;;;;;;;;;;6158058;23;20085;-66
2022/01/30 15:57:08;;;;;;;4.00;1.75;;;;;;;;;;6158321;23;20000;-66
2022/01/30 16:03:08;;;;;;;7.43;2.38;;;;;;;;;;6157957;23;20045;-66
2022/01/30 16:22:02;;;;;;;5.60;2.55;;;;;;;;;;6157784;23;19999;-67
2022/01/30 16:38:21;;;;;;;9.13;2.70;;;;;;;;;;6157516;23;20000;-66
2022/01/30 16:44:25;;;;;;;6.07;3.22;;;;;;;;;;6157589;23;20012;-67
2022/01/30 16:50:26;;;;;;;7.20;3.35;;;;;;;;;;6157505;23;20004;-67
2022/01/30 16:56:28;;;;;;;9.60;2.78;;;;;;;;;;6157464;23;19997;-66
2022/01/30 17:02:29;;;;;;;3.15;1.10;;;;;;;;;;6157433;23;20334;-66
2022/01/30 17:08:30;;;;;;;7.53;2.63;;;;;;;;;;6157364;23;20039;-66
2022/01/30 17:18:07;;;;;;;7.97;3.03;;;;;;;;;;6157255;23;20005;-66
2022/01/30 17:24:08;;;;;;;9.55;2.92;;;;;;;;;;6157225;23;20073;-66
2022/01/30 17:43:51;;;;;;;10.05;3.35;;;;;;;;;;6156997;23;20101;-66
2022/01/30 17:49:51;;;;;;;10.13;3.28;;;;;;;;;;6156964;23;20056;-65
2022/01/30 17:55:51;;;;;;;8.35;2.45;;;;;;;;;;6156864;23;20050;-65
2022/01/30 18:01:51;;;;;;;8.32;3.03;;;;;;;;;;6156851;23;20036;-65
2022/01/30 18:07:52;;;;;;;7.07;2.90;;;;;;;;;;6156739;23;20012;-66
2022/01/30 18:13:53;;;;;;;7.07;3.10;;;;;;;;;;6156726;23;19996;-65
2022/01/30 18:19:54;;;;;;;9.35;3.38;;;;;;;;;;6156598;23;20015;-65
2022/01/30 18:25:55;;;;;;;9.60;3.28;;;;;;;;;;6156653;23;20418;-66
2022/01/30 18:45:29;;;;;;;9.07;2.92;;;;;;;;;;6156489;23;20050;-69
2022/01/30 18:51:29;;;;;;;4.68;2.13;;;;;;;;;;6156494;23;20044;-71
2022/01/30 18:57:30;;;;;;;8.85;2.55;;;;;;;;;;6156439;23;20085;-70
2022/01/30 19:03:30;;;;;;;8.40;2.95;;;;;;;;;;6156353;23;20000;-70
2022/01/30 19:09:31;;;;;;;7.85;2.72;;;;;;;;;;6156333;23;20485;-69
2022/01/30 19:15:31;;;;;;;9.48;2.50;;;;;;;;;;6156335;23;20001;-69
2022/01/30 19:21:32;;;;;;;11.07;2.20;;;;;;;;;;6156511;23;20066;-69
2022/01/30 19:31:08;;;;;;;7.13;2.85;;;;;;;;;;6158256;23;20021;-69
2022/01/30 19:40:57;;;;;;;7.72;2.58;;;;;;;;;;6158184;23;20116;-69
2022/01/30 19:46:59;;;;;;;6.35;2.28;;;;;;;;;;6158163;23;20050;-71
2022/01/30 19:53:00;;;;;;;8.32;2.28;;;;;;;;;;6158053;23;20016;-71
2022/01/30 19:59:01;;;;;;;10.07;2.90;;;;;;;;;;6157907;23;20017;-69
2022/01/30 20:05:01;;;;;;;6.95;2.42;;;;;;;;;;6158011;23;20457;-71
2022/01/30 20:11:01;;;;;;;8.65;2.58;;;;;;;;;;6158146;23;20000;-66
2022/01/30 20:17:01;;;;;;;9.38;2.97;;;;;;;;;;6157836;23;20014;-66
2022/01/30 20:23:02;;;;;;;4.93;1.75;;;;;;;;;;6157829;23;20377;-67
2022/01/30 20:29:04;;;;;;;9.00;2.85;;;;;;;;;;6157775;23;20086;-67
2022/01/30 20:35:05;;;;;;;14.23;4.00;;;;;;;;;;6157274;23;20001;-67
2022/01/30 20:44:17;;;;;;;8.45;2.72;;;;;;;;;;6155808;23;20149;-71
2022/01/30 20:50:18;;;;;;;13.23;3.47;;;;;;;;;;6157538;23;20005;-71
2022/01/30 20:56:19;;;;;;;6.22;2.35;;;;;;;;;;6157581;23;20000;-70
2022/01/30 21:06:00;;;;;;;11.93;4.45;;;;;;;;;;6156869;23;20057;-71
2022/01/30 21:08:27;;;;;;;13.88;4.18;;;;;;;;;;6157128;23;20006;-71
2022/01/30 21:10:58;;;;;;;8.82;3.30;;;;;;;;;;6157005;23;20330;-71
2022/01/30 21:13:27;;;;;;;7.28;2.97;;;;;;;;;;6157185;23;20012;-72
2022/01/30 21:15:53;;;;;;;5.32;2.22;;;;;;;;;;6131188;23;20005;-71
2022/01/30 21:18:18;;;;;;;9.00;3.65;;;;;;;;;;6157076;23;20009;-71
2022/01/30 21:20:44;;;;;;;9.88;2.92;;;;;;;;;;6157195;23;20006;-71
2022/01/30 21:23:12;;;;;;;9.02;3.65;;;;;;;;;;6156918;23;20005;-71
2022/01/30 21:25:44;;;;;;;10.32;3.15;;;;;;;;;;6156867;23;20346;-70
2022/01/30 21:28:10;;;;;;;4.60;1.88;;;;;;;;;;6130936;23;20006;-68
2022/01/30 21:30:36;;;;;;;6.05;2.42;;;;;;;;;;6130889;23;20522;-69
2022/01/30 21:33:02;;;;;;;9.20;2.78;;;;;;;;;;6156945;23;20029;-69
2022/01/30 21:35:28;;;;;;;8.73;2.97;;;;;;;;;;6156749;23;20013;-68
2022/01/30 21:37:54;;;;;;;11.10;3.35;;;;;;;;;;6157019;23;20009;-69
2022/01/30 21:40:19;;;;;;;7.32;2.72;;;;;;;;;;6156491;23;20005;-69
2022/01/30 21:42:45;;;;;;;12.32;3.72;;;;;;;;;;6156531;23;20319;-69
2022/01/30 21:45:11;;;;;;;10.55;2.83;;;;;;;;;;6129992;23;20021;-69
2022/01/30 21:47:37;;;;;;;10.20;2.90;;;;;;;;;;6156546;23;20012;-68
2022/01/30 21:50:03;;;;;;;11.18;3.08;;;;;;;;;;6156642;23;20010;-68
2022/01/30 21:52:29;;;;;;;9.05;2.67;;;;;;;;;;6156434;23;20005;-68
2022/01/30 21:54:54;;;;;;;6.93;2.67;;;;;;;;;;6156751;23;20437;-68
2022/01/30 21:57:20;;;;;;;6.80;2.53;;;;;;;;;;6156531;23;20009;-69
2022/01/30 21:59:46;;;;;;;6.30;2.28;;;;;;;;;;6156599;23;20037;-69
2022/01/30 22:02:11;;;;;;;4.70;1.77;;;;;;;;;;6156777;23;20010;-69
2022/01/30 22:04:42;;;;;;;8.60;2.92;;;;;;;;;;6156379;23;20357;-70
2022/01/30 22:07:08;;;;;;;7.45;2.85;;;;;;;;;;6156596;23;20334;-69
2022/01/30 22:09:34;;;;;;;10.35;2.97;;;;;;;;;;6130476;23;20040;-69
2022/01/30 22:12:12;;;;;;;11.40;3.03;;;;;;;;;;6156766;23;20013;-71
2022/01/30 22:14:51;;;;;;;14.82;2.92;;;;;;;;;;6157053;23;20048;-70
2022/01/30 22:17:17;;;;;;;6.88;2.70;;;;;;;;;;6156984;23;20013;-70
2022/01/30 22:19:43;;;;;;;6.97;2.08;;;;;;;;;;6156495;23;19997;-70
2022/01/30 22:22:11;;;;;;;9.05;3.30;;;;;;;;;;6156844;23;20142;-70
2022/01/30 22:24:36;;;;;;;6.82;2.35;;;;;;;;;;6156524;23;20430;-70
2022/01/30 22:27:02;;;;;;;5.13;1.88;;;;;;;;;;6130517;23;20033;-70
2022/01/30 22:29:27;;;;;;;5.97;1.98;;;;;;;;;;6156240;23;20005;-71
2022/01/30 22:31:53;;;;;;;11.98;4.60;;;;;;;;;;6156517;23;20091;-70
2022/01/30 22:34:22;;;;;;;20.50;6.53;;;;;;;;;;6156159;23;20001;-70
2022/01/30 22:36:47;;;;;;;5.95;1.80;;;;;;;;;;6130537;23;20009;-68
2022/01/30 22:39:13;;;;;;;3.40;1.48;;;;;;;;;;6156252;23;20051;-68
2022/01/30 22:41:38;;;;;;;11.02;3.38;;;;;;;;;;6156205;23;20009;-68
2022/01/30 22:44:04;;;;;;;4.70;1.85;;;;;;;;;;6129780;23;19998;-68
2022/01/30 22:46:30;;;;;;;6.18;2.63;;;;;;;;;;6156091;23;20021;-69
2022/01/30 22:48:57;;;;;;;6.07;1.95;;;;;;;;;;6130520;23;20039;-71